Time;durP1;ratioP1;P1;durP2;ratioP2;P2;SDS_P1;SDS_P2;PMS_P1;PMS_P2;Temp;Humidity;BMP_temperature;BMP_pressure;BME280_temperature;BME280_humidity;BME280_pressure;Samples;Min_cycle;Max_cycle;Signal;HPM_P1;HPM_P2
2021/04/29 00:02:24;;;;;;;7.22;4.90;;;;;;;7.61;100.00;99114.12;1768438;80;20930;-62
2021/04/29 00:04:55;;;;;;;7.65;5.12;;;;;;;7.65;100.00;99111.96;1744182;80;21194;-62
2021/04/29 00:07:26;;;;;;;7.65;5.10;;;;;;;7.66;100.00;99113.28;1742437;82;21381;-62
2021/04/29 00:09:57;;;;;;;8.18;4.95;;;;;;;7.70;100.00;99112.86;1710453;82;21006;-62
2021/04/29 00:12:28;;;;;;;9.83;4.60;;;;;;;7.76;100.00;99108.52;1739489;82;21520;-62
2021/04/29 00:15:02;;;;;;;6.65;4.60;;;;;;;7.82;100.00;99107.23;1757065;80;20958;-62
2021/04/29 00:17:32;;;;;;;5.65;5.03;;;;;;;7.89;100.00;99106.81;1761820;80;21512;-62
2021/04/29 00:20:09;;;;;;;7.05;4.87;;;;;;;7.93;100.00;99104.64;1739059;80;21396;-62
2021/04/29 00:22:40;;;;;;;6.00;5.17;;;;;;;7.98;100.00;99108.59;1741754;80;21572;-63
2021/04/29 00:25:15;;;;;;;6.95;5.28;;;;;;;8.02;100.00;99103.79;1737035;81;21073;-62
2021/04/29 00:27:46;;;;;;;5.75;5.15;;;;;;;8.07;100.00;99102.97;1741713;80;20907;-62
2021/04/29 00:30:17;;;;;;;5.92;5.30;;;;;;;8.09;100.00;99099.91;1764898;80;20923;-62
2021/04/29 00:32:51;;;;;;;8.65;4.87;;;;;;;8.12;100.00;99095.09;1771184;80;21404;-62
2021/04/29 00:35:24;;;;;;;7.00;5.15;;;;;;;8.13;100.00;99094.22;1735027;82;21108;-62
2021/04/29 00:37:55;;;;;;;5.58;4.55;;;;;;;8.12;100.00;99096.41;1741285;82;20950;-62
2021/04/29 00:40:26;;;;;;;5.85;4.17;;;;;;;8.14;100.00;99091.60;1746465;80;20934;-62
2021/04/29 00:42:57;;;;;;;7.70;5.35;;;;;;;8.15;100.00;99089.41;1750780;80;20934;-62
2021/04/29 00:45:29;;;;;;;;;;;;;;;8.16;100.00;99088.54;1763744;80;21382;-62
2021/04/29 00:48:04;;;;;;;8.28;5.95;;;;;;;8.16;100.00;99088.54;1753399;80;20264;-62
2021/04/29 00:50:39;;;;;;;11.45;6.67;;;;;;;8.16;100.00;99083.28;1741212;82;20943;-62
2021/04/29 00:53:11;;;;;;;9.70;7.25;;;;;;;8.16;100.00;99083.28;1711219;83;21250;-62
2021/04/29 00:55:42;;;;;;;9.00;6.75;;;;;;;8.17;100.00;99085.47;1747897;80;21578;-62
2021/04/29 00:58:13;;;;;;;7.90;5.65;;;;;;;8.17;100.00;99086.35;1774819;80;21384;-63
2021/04/29 01:00:44;;;;;;;8.65;6.03;;;;;;;8.18;100.00;99086.80;1763111;80;21116;-62
2021/04/29 01:03:17;;;;;;;8.38;5.50;;;;;;;8.20;100.00;99088.98;1727819;80;21014;-62
2021/04/29 01:05:58;;;;;;;;;;;;;;;8.19;100.00;99085.92;1744404;80;21064;-62
2021/04/29 01:08:40;;;;;;;7.50;5.50;;;;;;;8.17;100.00;99082.41;1767501;80;20136;-63
2021/04/29 01:11:14;;;;;;;6.53;5.25;;;;;;;8.12;100.00;99084.16;1747920;80;21204;-62
2021/04/29 01:13:56;;;;;;;10.13;5.97;;;;;;;8.04;100.00;99084.56;1747061;80;21132;-62
2021/04/29 01:16:27;;;;;;;8.60;5.62;;;;;;;7.99;100.00;99088.90;1738226;80;20994;-63
2021/04/29 01:18:59;;;;;;;;;;;;;;;7.97;100.00;99085.39;1727392;80;20950;-63
2021/04/29 01:21:33;;;;;;;6.78;5.35;;;;;;;7.95;100.00;99086.26;1761641;80;20164;-63
2021/04/29 01:24:14;;;;;;;9.25;5.30;;;;;;;7.91;100.00;99090.62;1742502;80;20951;-62
2021/04/29 01:26:52;;;;;;;5.95;4.90;;;;;;;7.87;100.00;99085.80;1721327;82;21148;-62
2021/04/29 01:29:31;;;;;;;7.08;5.00;;;;;;;7.85;100.00;99088.85;1753651;80;21464;-62
2021/04/29 01:32:04;;;;;;;6.35;5.40;;;;;;;7.79;100.00;99082.27;1732498;82;21084;-62
2021/04/29 01:34:39;;;;;;;8.75;5.05;;;;;;;7.79;100.00;99084.89;1741987;80;20946;-62
2021/04/29 01:37:10;;;;;;;6.80;5.17;;;;;;;7.76;100.00;99080.06;1759962;80;21201;-62
2021/04/29 01:39:45;;;;;;;7.67;5.53;;;;;;;7.68;100.00;99082.66;1744018;80;21640;-62
2021/04/29 01:42:16;;;;;;;7.83;5.00;;;;;;;7.65;100.00;99073.89;1730277;81;21118;-61
2021/04/29 01:44:47;;;;;;;7.75;5.58;;;;;;;7.66;100.00;99075.22;1721521;82;21124;-63
2021/04/29 01:47:18;;;;;;;7.28;5.05;;;;;;;7.69;100.00;99076.98;1747804;80;20946;-63
2021/04/29 01:49:54;;;;;;;6.78;5.40;;;;;;;7.72;100.00;99070.42;1728532;82;21390;-62
2021/04/29 01:52:25;;;;;;;8.05;5.35;;;;;;;7.72;100.00;99071.30;1751702;80;20971;-62
2021/04/29 01:54:56;;;;;;;7.05;5.10;;;;;;;7.72;100.00;99073.92;1762570;80;20970;-62
2021/04/29 01:57:27;;;;;;;6.37;5.35;;;;;;;7.72;100.00;99069.98;1727832;82;20914;-62
2021/04/29 01:59:59;;;;;;;7.00;5.90;;;;;;;7.75;100.00;99072.63;1745302;82;20943;-63
2021/04/29 02:02:32;;;;;;;9.60;6.30;;;;;;;7.76;100.00;99070.44;1740318;80;21359;-62
2021/04/29 02:05:06;;;;;;;7.85;5.67;;;;;;;7.78;100.00;99072.63;1740494;81;20966;-62
2021/04/29 02:07:39;;;;;;;7.15;5.65;;;;;;;7.79;100.00;99077.45;1752794;80;21655;-62
2021/04/29 02:10:11;;;;;;;8.60;5.67;;;;;;;7.79;100.00;99077.45;1740012;80;20950;-62
2021/04/29 02:12:51;;;;;;;7.22;5.60;;;;;;;7.80;100.00;99073.95;1745743;80;21052;-62
2021/04/29 02:15:31;;;;;;;8.25;5.60;;;;;;;7.81;100.00;99075.70;1748335;82;21370;-62
2021/04/29 02:18:12;;;;;;;6.22;5.35;;;;;;;7.80;100.00;99069.58;1748169;80;21100;-62
2021/04/29 02:20:44;;;;;;;5.83;4.85;;;;;;;7.77;100.00;99066.06;1745123;80;20974;-63
2021/04/29 02:23:21;;;;;;;7.35;5.78;;;;;;;7.70;100.00;99065.17;1743836;80;21052;-66
2021/04/29 02:25:55;;;;;;;8.28;4.92;;;;;;;7.62;100.00;99072.13;1731578;81;20990;-64
2021/04/29 02:28:25;;;;;;;7.67;5.12;;;;;;;7.53;100.00;99074.69;1744658;82;22140;-64
2021/04/29 02:30:56;;;;;;;5.95;5.05;;;;;;;7.46;100.00;99078.15;1735636;80;20962;-65
2021/04/29 02:33:29;;;;;;;17.05;5.30;;;;;;;7.42;100.00;99074.63;1740541;80;21078;-65
2021/04/29 02:36:11;;;;;;;7.03;4.70;;;;;;;7.39;100.00;99069.37;1761358;80;21505;-64
2021/04/29 02:38:46;;;;;;;7.55;4.30;;;;;;;7.36;100.00;99074.60;1774951;80;21500;-61
2021/04/29 02:41:22;;;;;;;6.08;4.47;;;;;;;7.32;100.00;99069.33;1775015;80;21339;-63
2021/04/29 02:43:54;;;;;;;4.62;4.12;;;;;;;7.32;100.00;99075.45;1756350;80;21557;-62
2021/04/29 02:46:25;;;;;;;5.62;4.62;;;;;;;7.30;100.00;99074.57;1744292;81;21120;-62
2021/04/29 02:49:00;;;;;;;4.90;4.17;;;;;;;7.30;100.00;99071.95;1708556;83;20975;-62
2021/04/29 02:51:39;;;;;;;4.95;4.00;;;;;;;7.29;100.00;99069.31;1719329;80;20953;-63
2021/04/29 02:54:11;;;;;;;5.08;4.37;;;;;;;7.25;100.00;99063.17;1730321;81;22278;-62
2021/04/29 02:56:42;;;;;;;4.87;4.37;;;;;;;7.20;100.00;99067.08;1695012;82;21089;-64
2021/04/29 02:59:13;;;;;;;6.20;4.42;;;;;;;7.15;100.00;99070.55;1745140;81;21208;-65
2021/04/29 03:01:45;;;;;;;6.47;4.43;;;;;;;7.10;100.00;99074.89;1730743;80;21057;-65
2021/04/29 03:04:16;;;;;;;6.42;4.50;;;;;;;7.10;100.00;99062.65;1713230;82;21090;-66
2021/04/29 03:06:49;;;;;;;6.40;4.83;;;;;;;7.10;100.00;99077.08;1742657;82;21654;-64
2021/04/29 03:09:20;;;;;;;7.78;4.70;;;;;;;7.09;100.00;99066.11;1745943;81;21137;-65
2021/04/29 03:11:52;;;;;;;5.70;4.10;;;;;;;7.07;100.00;99061.28;1744757;80;21080;-65
2021/04/29 03:14:25;;;;;;;5.22;4.20;;;;;;;7.09;100.00;99071.78;1728650;81;21066;-64
2021/04/29 03:16:55;;;;;;;12.18;4.58;;;;;;;7.04;100.00;99069.56;1729455;82;21093;-65
2021/04/29 03:19:25;;;;;;;6.50;4.90;;;;;;;7.03;100.00;99064.76;1736981;81;21312;-65
2021/04/29 03:21:56;;;;;;;7.58;4.87;;;;;;;7.02;100.00;99067.37;1760008;80;21663;-69
2021/04/29 03:24:27;;;;;;;6.83;4.95;;;;;;;6.95;100.00;99073.00;1752424;80;20998;-64
2021/04/29 03:26:58;;;;;;;5.22;4.42;;;;;;;6.88;100.00;99073.83;1758460;80;21216;-66
2021/04/29 03:29:30;;;;;;;5.33;4.55;;;;;;;6.88;100.00;99075.14;1725019;81;21228;-67
2021/04/29 03:32:01;;;;;;;5.28;4.62;;;;;;;6.88;100.00;99069.89;1732406;82;21218;-64
2021/04/29 03:34:31;;;;;;;5.00;4.50;;;;;;;6.90;100.00;99066.42;1741109;81;21085;-64
2021/04/29 03:37:01;;;;;;;5.65;4.50;;;;;;;6.96;100.00;99069.52;1744534;80;20946;-65
2021/04/29 03:39:35;;;;;;;7.22;5.30;;;;;;;7.03;100.00;99070.44;1707073;82;21521;-62
2021/04/29 03:42:07;;;;;;;5.47;4.95;;;;;;;7.05;100.00;99064.77;1712486;82;21062;-66
2021/04/29 03:45:11;;;;;;;6.65;5.28;;;;;;;7.06;100.00;99070.02;1691721;84;21400;-65
2021/04/29 03:47:34;;;;;;;5.12;4.62;;;;;;;7.10;100.00;99061.34;1659141;83;21140;-64
2021/04/29 03:50:07;;;;;;;10.88;5.15;;;;;;;7.16;100.00;99062.69;1654445;85;28112;-65
2021/04/29 03:52:38;;;;;;;5.87;4.62;;;;;;;7.14;100.00;99059.17;1718675;82;21117;-65
2021/04/29 03:55:09;;;;;;;6.50;5.50;;;;;;;7.15;100.00;99063.98;1740094;82;21520;-64
2021/04/29 03:57:39;;;;;;;6.60;5.47;;;;;;;7.10;100.00;99062.65;1735895;81;21226;-64
2021/04/29 04:00:10;;;;;;;8.18;5.62;;;;;;;7.10;100.00;99066.58;1714886;82;21096;-64
2021/04/29 04:02:39;;;;;;;6.65;5.17;;;;;;;7.06;100.00;99067.83;1724209;82;21050;-64
2021/04/29 04:05:11;;;;;;;6.20;5.50;;;;;;;7.01;100.00;99069.55;1725286;82;21101;-64
2021/04/29 04:07:40;;;;;;;7.22;5.75;;;;;;;6.99;100.00;99067.34;1714115;82;21084;-64
2021/04/29 04:10:11;;;;;;;7.90;6.37;;;;;;;6.99;100.00;99076.53;1725941;82;22062;-64
2021/04/29 04:12:45;;;;;;;6.92;6.05;;;;;;;6.96;100.00;99068.20;1724367;81;21216;-64
2021/04/29 04:15:15;;;;;;;8.75;6.60;;;;;;;6.98;100.00;99074.34;1724517;82;21497;-64
2021/04/29 04:17:46;;;;;;;8.73;5.92;;;;;;;7.02;100.00;99074.80;1740008;81;21069;-64
2021/04/29 04:20:18;;;;;;;8.55;6.33;;;;;;;7.07;100.00;99073.09;1737033;81;21073;-63
2021/04/29 04:22:49;;;;;;;8.90;6.55;;;;;;;7.14;100.00;99064.42;1738839;82;21250;-64
2021/04/29 04:25:21;;;;;;;11.85;6.67;;;;;;;7.22;100.00;99064.47;1740348;82;21131;-64
2021/04/29 04:27:52;;;;;;;9.35;7.50;;;;;;;7.28;100.00;99062.31;1722970;82;21500;-64
2021/04/29 04:30:22;;;;;;;7.67;6.83;;;;;;;7.34;100.00;99062.34;1723854;82;20957;-64
2021/04/29 04:32:52;;;;;;;10.25;6.75;;;;;;;7.37;100.00;99057.98;1712902;82;21160;-64
2021/04/29 04:35:22;;;;;;;10.68;7.45;;;;;;;7.42;100.00;99061.52;1719714;82;21246;-63
2021/04/29 04:37:51;;;;;;;10.23;7.67;;;;;;;7.49;100.00;99063.73;1712861;82;20946;-63
2021/04/29 04:40:21;;;;;;;10.82;8.53;;;;;;;7.54;100.00;99067.25;1729874;82;21547;-64
2021/04/29 04:42:51;;;;;;;9.45;7.80;;;;;;;7.63;100.00;99070.39;1717760;82;21057;-64
2021/04/29 04:45:23;;;;;;;9.80;7.35;;;;;;;7.71;100.00;99071.30;1736405;82;21030;-64
2021/04/29 04:47:57;;;;;;;10.48;7.45;;;;;;;7.80;100.00;99069.58;1742109;81;21363;-64
2021/04/29 04:50:27;;;;;;;11.50;8.30;;;;;;;7.86;100.00;99070.03;1728696;81;20971;-64
2021/04/29 04:52:57;;;;;;;11.45;8.83;;;;;;;7.94;100.00;99070.06;1716023;82;21529;-63
2021/04/29 04:55:26;;;;;;;11.40;8.25;;;;;;;7.99;100.00;99070.52;1737586;81;21213;-64
2021/04/29 04:57:55;;;;;;;13.03;7.92;;;;;;;8.12;100.00;99071.02;1725027;82;21167;-64
2021/04/29 05:00:25;;;;;;;11.48;8.58;;;;;;;8.25;100.00;99070.60;1729200;82;22100;-64
2021/04/29 05:02:55;;;;;;;11.05;8.43;;;;;;;8.32;100.00;99073.68;1740562;81;20962;-64
2021/04/29 05:05:25;;;;;;;10.98;8.18;;;;;;;8.41;100.00;99075.48;1733720;81;21097;-64
2021/04/29 05:07:57;;;;;;;12.73;8.63;;;;;;;8.45;100.00;99075.48;1720496;82;21662;-64
2021/04/29 05:10:30;;;;;;;;;;;;;;;8.53;100.00;99066.32;1713081;82;21490;-64
2021/04/29 05:13:03;;;;;;;10.63;8.35;;;;;;;8.61;100.00;99073.77;1729982;82;20496;-64
2021/04/29 05:15:34;;;;;;;14.78;9.25;;;;;;;8.71;100.00;99072.89;1728581;81;20954;-63
2021/04/29 05:18:05;;;;;;;14.00;8.98;;;;;;;8.79;100.00;99075.52;1730549;82;21089;-64
2021/04/29 05:20:39;;;;;;;11.60;8.33;;;;;;;8.84;100.00;99075.96;1725835;81;21188;-63
2021/04/29 05:23:09;;;;;;;22.58;8.85;;;;;;;8.90;100.00;99072.89;1736435;81;21125;-64
2021/04/29 05:25:39;;;;;;;10.65;7.95;;;;;;;8.95;100.00;99069.81;1743220;81;22340;-64
2021/04/29 05:28:11;;;;;;;11.57;7.72;;;;;;;9.05;100.00;99078.16;1740363;82;21168;-64
2021/04/29 05:30:42;;;;;;;11.15;7.95;;;;;;;9.13;100.00;99072.45;1714401;82;20946;-64
2021/04/29 05:33:13;;;;;;;10.98;7.78;;;;;;;9.18;100.00;99076.39;1728466;82;21041;-64
2021/04/29 05:35:42;;;;;;;9.50;8.13;;;;;;;9.18;100.00;99077.70;1737872;82;20974;-65
2021/04/29 05:38:13;;;;;;;9.73;7.83;;;;;;;9.18;100.00;99078.58;1735386;82;21426;-64
2021/04/29 05:40:42;;;;;;;10.98;7.62;;;;;;;9.15;100.00;99068.94;1721019;82;20954;-64
2021/04/29 05:43:12;;;;;;;9.83;6.87;;;;;;;9.17;100.00;99074.20;1733136;81;21208;-64
2021/04/29 05:45:42;;;;;;;9.53;7.60;;;;;;;9.25;100.00;99082.08;1733689;82;21132;-64
2021/04/29 05:48:11;;;;;;;9.73;7.60;;;;;;;9.31;100.00;99078.99;1735040;82;21569;-64
2021/04/29 05:50:40;;;;;;;9.90;7.22;;;;;;;9.42;100.00;99086.86;1730672;82;22048;-64
2021/04/29 05:53:10;;;;;;;8.95;7.30;;;;;;;9.52;100.00;99079.41;1720405;81;21180;-64
2021/04/29 05:55:40;;;;;;;8.78;6.90;;;;;;;9.61;100.00;99083.32;1727287;82;21231;-64
2021/04/29 05:58:09;;;;;;;9.58;6.75;;;;;;;9.68;100.00;99086.81;1741597;82;21089;-64
2021/04/29 06:00:38;;;;;;;10.20;7.28;;;;;;;9.74;100.00;99074.94;1740396;82;21160;-64
2021/04/29 06:03:07;;;;;;;9.50;6.78;;;;;;;9.84;100.00;99074.02;1735838;81;21355;-64
2021/04/29 06:05:36;;;;;;;8.38;6.92;;;;;;;9.92;100.00;99074.85;1740805;81;21068;-64
2021/04/29 06:08:06;;;;;;;9.40;6.72;;;;;;;9.99;100.00;99078.36;1723076;82;20967;-64
2021/04/29 06:10:35;;;;;;;9.05;6.80;;;;;;;10.05;100.00;99073.94;1720923;81;21064;-64
2021/04/29 06:13:05;;;;;;;10.60;7.30;;;;;;;10.19;100.00;99075.62;1740956;81;21069;-64
2021/04/29 06:15:34;;;;;;;8.20;6.85;;;;;;;10.33;100.00;99083.91;1736347;81;21403;-64
2021/04/29 06:18:04;;;;;;;9.50;7.80;;;;;;;10.49;100.00;99075.92;1740160;81;20974;-64
2021/04/29 06:20:33;;;;;;;8.00;6.60;;;;;;;10.68;100.00;99072.27;1725944;81;20950;-64
2021/04/29 06:23:02;;;;;;;10.48;6.28;;;;;;;10.85;100.00;99077.40;1727638;82;20954;-64
2021/04/29 06:25:32;;;;;;;19.67;6.75;;;;;;;10.98;100.00;99070.72;1721198;81;21073;-64
2021/04/29 06:28:02;;;;;;;9.08;6.15;;;;;;;11.13;100.00;99069.70;1740710;81;22270;-65
2021/04/29 06:30:31;;;;;;;7.42;5.80;;;;;;;11.25;100.00;99070.89;1725878;81;21029;-65
2021/04/29 06:33:00;;;;;;;8.38;5.50;;;;;;;11.40;100.00;99066.38;1731783;82;20975;-64
2021/04/29 06:35:29;;;;;;;9.08;5.83;;;;;;;11.51;100.00;99065.80;1731501;82;20942;-65
2021/04/29 06:38:00;;;;;;;8.13;5.15;;;;;;;11.61;100.00;99074.05;1734052;82;21085;-65
2021/04/29 06:40:29;;;;;;;9.50;5.67;;;;;;;11.62;100.00;99066.11;1718195;82;21190;-64
2021/04/29 06:42:58;;;;;;;6.78;5.35;;;;;;;11.64;100.00;99063.00;1737129;81;21492;-64
2021/04/29 06:45:27;;;;;;;6.83;5.37;;;;;;;11.72;100.00;99070.84;1740168;82;20966;-65
2021/04/29 06:47:57;;;;;;;6.28;5.22;;;;;;;11.80;100.00;99074.30;1741024;82;21065;-65
2021/04/29 06:50:26;;;;;;;8.83;5.92;;;;;;;11.92;100.00;99075.49;1735071;81;21484;-65
2021/04/29 06:52:55;;;;;;;7.28;5.80;;;;;;;12.07;100.00;99070.45;1742349;81;21333;-65
2021/04/29 06:55:27;;;;;;;8.58;5.53;;;;;;;12.20;100.00;99077.77;1735300;82;27044;-65
2021/04/29 06:57:56;;;;;;;15.32;4.78;;;;;;;12.36;100.00;99089.91;1722910;82;20970;-65
2021/04/29 07:00:26;;;;;;;8.23;4.62;;;;;;;12.48;100.00;99079.14;1730558;82;21473;-65
2021/04/29 07:02:56;;;;;;;6.03;4.70;;;;;;;12.51;100.00;99073.81;1732839;82;21489;-65
2021/04/29 07:05:25;;;;;;;6.97;4.95;;;;;;;12.49;100.00;99074.28;1729061;81;21497;-65
2021/04/29 07:07:54;;;;;;;7.20;4.85;;;;;;;12.56;100.00;99078.58;1724397;82;21041;-65
2021/04/29 07:10:23;;;;;;;5.53;4.85;;;;;;;12.69;100.00;99075.30;1719960;82;21080;-65
2021/04/29 07:12:55;;;;;;;9.20;5.53;;;;;;;12.76;100.00;99076.95;1734688;81;20992;-65
2021/04/29 07:15:24;;;;;;;6.15;5.17;;;;;;;12.82;100.00;99074.23;1716883;82;20974;-65
2021/04/29 07:18:04;;;;;;;5.85;5.03;;;;;;;12.80;100.00;99081.77;1719755;82;21197;-65
2021/04/29 07:20:34;;;;;;;7.60;5.30;;;;;;;12.83;100.00;99075.10;1727894;82;20958;-65
2021/04/29 07:23:06;;;;;;;7.15;5.37;;;;;;;12.94;100.00;99067.85;1736991;81;21525;-65
2021/04/29 07:25:37;;;;;;;9.45;5.22;;;;;;;13.09;100.00;99068.04;1740319;82;21269;-65
2021/04/29 07:28:06;;;;;;;5.92;5.15;;;;;;;13.28;100.00;99060.25;1740840;82;21065;-65
2021/04/29 07:30:35;;;;;;;8.90;4.83;;;;;;;13.44;100.00;99065.68;1731734;81;21230;-65
2021/04/29 07:33:05;;;;;;;7.45;4.83;;;;;;;13.63;100.00;99073.27;1722317;82;21092;-65
2021/04/29 07:35:34;;;;;;;12.80;4.58;;;;;;;13.75;100.00;99065.11;1731302;82;21057;-65
2021/04/29 07:38:04;;;;;;;7.60;4.17;;;;;;;13.88;100.00;99064.41;1737197;82;20959;-65
2021/04/29 07:40:36;;;;;;;5.53;3.50;;;;;;;14.02;100.00;99058.35;1743872;82;21473;-65
2021/04/29 07:43:07;;;;;;;3.85;3.15;;;;;;;14.10;98.56;99055.95;1736235;81;21468;-66
2021/04/29 07:45:37;;;;;;;4.28;3.10;;;;;;;14.15;93.73;99066.00;1723798;81;21107;-65
2021/04/29 07:48:07;;;;;;;4.72;3.40;;;;;;;14.17;93.79;99064.65;1739769;82;20919;-65
2021/04/29 07:50:38;;;;;;;3.72;3.30;;;;;;;14.26;92.42;99058.30;1725910;81;21020;-65
2021/04/29 07:53:09;;;;;;;3.95;3.27;;;;;;;14.38;92.04;99050.05;1741769;81;21099;-65
2021/04/29 07:55:38;;;;;;;3.47;3.10;;;;;;;14.50;91.59;99041.84;1735909;82;21408;-66
2021/04/29 07:58:10;;;;;;;4.90;3.13;;;;;;;14.63;90.43;99052.58;1716519;82;21104;-66
2021/04/29 08:00:41;;;;;;;4.27;3.57;;;;;;;14.72;86.41;99044.42;1738102;82;21050;-65
2021/04/29 08:03:10;;;;;;;6.08;3.75;;;;;;;14.71;82.48;99046.66;1740895;82;20963;-66
2021/04/29 08:05:40;;;;;;;5.03;3.30;;;;;;;14.71;83.68;99049.77;1741666;81;21057;-65
2021/04/29 08:08:09;;;;;;;11.20;3.42;;;;;;;14.73;85.67;99047.95;1729513;81;21531;-65
2021/04/29 08:10:44;;;;;;;4.72;3.20;;;;;;;14.78;85.59;99044.27;1729696;82;21279;-65
2021/04/29 08:13:13;;;;;;;21.27;3.42;;;;;;;14.90;83.61;99037.78;1731791;82;21173;-65
2021/04/29 08:15:44;;;;;;;3.60;2.80;;;;;;;14.99;84.40;99039.33;1739944;82;21082;-66
2021/04/29 08:18:13;;;;;;;7.80;2.90;;;;;;;15.08;81.71;99037.30;1737660;82;21097;-66
2021/04/29 08:20:43;;;;;;;4.83;3.12;;;;;;;15.17;81.09;99038.01;1735537;82;21276;-66
2021/04/29 08:23:13;;;;;;;5.28;2.42;;;;;;;15.29;81.08;99029.70;1739503;82;21106;-66
2021/04/29 08:25:43;;;;;;;5.00;2.87;;;;;;;15.40;79.79;99025.84;1742672;81;21489;-66
2021/04/29 08:28:12;;;;;;;2.92;2.62;;;;;;;15.52;79.88;99022.42;1736988;82;21082;-67
2021/04/29 08:30:41;;;;;;;4.58;2.80;;;;;;;15.57;76.15;99026.70;1720283;81;21925;-67
2021/04/29 08:33:10;;;;;;;6.00;2.80;;;;;;;15.59;73.20;99016.05;1724560;81;21190;-68
2021/04/29 08:35:41;;;;;;;3.95;2.87;;;;;;;15.63;71.48;99031.91;1725417;82;21524;-68
2021/04/29 08:38:10;;;;;;;4.90;2.80;;;;;;;15.64;69.28;99012.38;1740382;82;20967;-68
2021/04/29 08:40:39;;;;;;;8.45;3.02;;;;;;;15.59;68.39;99005.41;1715594;82;21533;-67
2021/04/29 08:43:09;;;;;;;12.58;3.58;;;;;;;15.53;66.14;99006.89;1723106;82;20970;-68
2021/04/29 08:45:38;;;;;;;4.30;3.10;;;;;;;15.48;69.24;99003.03;1741202;82;21253;-69
2021/04/29 08:48:08;;;;;;;5.75;3.25;;;;;;;15.57;71.13;99015.19;1733662;81;21106;-69
2021/04/29 08:50:37;;;;;;;5.58;3.27;;;;;;;15.67;72.50;99002.98;1713220;82;21493;-69
2021/04/29 08:53:07;;;;;;;5.70;3.00;;;;;;;15.80;73.41;98999.96;1739975;82;21070;-68
2021/04/29 08:55:37;;;;;;;3.65;3.15;;;;;;;15.94;75.03;98997.76;1731983;81;20954;-69
2021/04/29 08:58:09;;;;;;;5.72;3.20;;;;;;;16.06;74.66;99000.05;1729340;81;21596;-67
2021/04/29 09:00:39;;;;;;;5.95;3.70;;;;;;;16.16;73.21;98993.55;1719987;82;21508;-67
2021/04/29 09:03:09;;;;;;;7.15;3.37;;;;;;;16.23;72.04;98988.45;1725596;81;20950;-67
2021/04/29 09:05:39;;;;;;;4.80;3.90;;;;;;;16.23;72.54;98995.10;1725436;82;21053;-67
2021/04/29 09:08:08;;;;;;;5.75;4.17;;;;;;;16.29;74.63;98993.58;1741715;81;20979;-68
2021/04/29 09:10:39;;;;;;;7.47;4.25;;;;;;;16.38;74.89;98987.95;1735123;81;21365;-68
2021/04/29 09:13:17;;;;;;;5.60;3.55;;;;;;;16.46;75.29;98980.18;1737446;82;21089;-69
2021/04/29 09:15:46;;;;;;;9.28;4.10;;;;;;;16.55;75.25;98988.73;1741760;81;21073;-69
2021/04/29 09:18:21;;;;;;;5.85;3.55;;;;;;;16.60;73.91;98984.16;1735216;82;21600;-69
2021/04/29 09:21:01;;;;;;;4.58;3.60;;;;;;;16.67;75.22;98986.20;1716654;82;21068;-69
2021/04/29 09:23:32;;;;;;;5.78;3.22;;;;;;;16.76;75.99;98983.22;1731567;81;22296;-69
2021/04/29 09:26:07;;;;;;;4.20;3.67;;;;;;;16.86;74.30;98975.78;1728164;81;21109;-69
2021/04/29 09:28:51;;;;;;;5.80;3.40;;;;;;;16.83;73.73;98971.89;1734012;82;21125;-69
2021/04/29 09:31:27;;;;;;;5.05;3.45;;;;;;;16.76;71.85;98972.56;1732055;82;20903;-69
2021/04/29 09:33:58;;;;;;;5.17;3.30;;;;;;;16.76;72.53;98967.23;1729533;82;21141;-69
2021/04/29 09:36:36;;;;;;;8.50;3.37;;;;;;;16.82;71.42;98969.69;1734459;82;21493;-69
2021/04/29 09:39:15;;;;;;;3.98;3.27;;;;;;;16.92;73.66;98976.91;1714199;82;21001;-69
2021/04/29 09:41:48;;;;;;;7.40;3.40;;;;;;;17.09;76.44;98963.89;1735877;82;20950;-69
2021/04/29 09:44:19;;;;;;;4.90;3.30;;;;;;;17.21;75.12;98962.13;1732508;82;21505;-69
2021/04/29 09:47:03;;;;;;;5.03;3.20;;;;;;;17.24;72.35;98963.81;1737065;82;21143;-69
2021/04/29 09:49:35;;;;;;;4.47;3.12;;;;;;;17.23;69.78;98969.60;1731928;81;21303;-69
2021/04/29 09:52:20;;;;;;;3.58;2.80;;;;;;;17.16;69.21;98950.75;1734541;81;21537;-69
2021/04/29 09:54:49;;;;;;;5.05;3.30;;;;;;;17.18;71.08;98962.23;1731532;82;20986;-69
2021/04/29 09:57:24;;;;;;;6.28;3.40;;;;;;;17.21;70.02;98963.92;1738294;82;21082;-69
2021/04/29 10:00:01;;;;;;;4.30;3.25;;;;;;;17.20;72.07;98949.72;1731394;82;21500;-69
2021/04/29 10:02:26;;;;;;;3.60;2.83;;;;;;;17.18;71.80;98945.37;1737762;80;21142;-69
2021/04/29 10:04:56;;;;;;;55.12;4.65;;;;;;;17.32;73.74;98947.07;1740212;82;20969;-69
2021/04/29 10:07:25;;;;;;;6.17;2.67;;;;;;;17.32;73.74;98947.07;1716261;82;21481;-69
2021/04/29 10:09:54;;;;;;;3.80;2.70;;;;;;;17.49;73.66;98947.31;1721075;82;20950;-69
2021/04/29 10:12:24;;;;;;;81.53;5.60;;;;;;;17.61;70.79;98940.22;1729292;81;21049;-70
2021/04/29 10:14:57;;;;;;;3.27;2.98;;;;;;;17.68;70.11;98940.89;1733667;81;22272;-68
2021/04/29 10:17:26;;;;;;;4.85;2.72;;;;;;;17.97;72.96;98933.08;1714015;81;21088;-68
2021/04/29 10:19:57;;;;;;;2.83;2.30;;;;;;;18.09;72.56;98934.42;1731000;82;20945;-67
2021/04/29 10:22:26;;;;;;;7.10;2.25;;;;;;;18.22;66.63;98936.54;1741571;82;21181;-67
2021/04/29 10:24:55;;;;;;;4.55;2.40;;;;;;;18.22;66.63;98936.54;1741391;81;21592;-67
2021/04/29 10:27:26;;;;;;;2.70;2.30;;;;;;;18.31;61.12;98939.30;1728417;82;21371;-68
2021/04/29 10:30:10;;;;;;;3.50;2.20;;;;;;;18.39;60.59;98942.52;1740759;82;21488;-67
2021/04/29 10:32:39;;;;;;;5.08;2.10;;;;;;;18.46;56.93;98933.83;1736280;81;21522;-68
2021/04/29 10:35:21;;;;;;;2.55;1.98;;;;;;;18.44;55.73;98917.83;1740327;82;21508;-68
2021/04/29 10:38:01;;;;;;;4.28;2.30;;;;;;;18.43;57.68;98922.77;1713567;82;21116;-69
2021/04/29 10:40:40;;;;;;;4.03;2.08;;;;;;;18.43;58.62;98920.56;1718381;82;21667;-68
2021/04/29 10:43:10;;;;;;;5.78;2.30;;;;;;;18.50;59.33;98932.77;1734811;81;20978;-68
2021/04/29 10:45:39;;;;;;;3.35;2.10;;;;;;;18.57;56.62;98915.55;1731848;82;21493;-68
2021/04/29 10:48:09;;;;;;;3.50;1.80;;;;;;;18.64;56.55;98914.85;1713820;82;20926;-68
2021/04/29 10:50:49;;;;;;;2.37;1.90;;;;;;;18.62;55.72;98928.74;1743056;82;21494;-68
2021/04/29 10:53:31;;;;;;;2.22;1.80;;;;;;;18.60;55.68;98911.41;1738999;81;22179;-68
2021/04/29 10:56:14;;;;;;;2.67;1.90;;;;;;;18.62;56.49;98904.23;1709423;82;21176;-69
2021/04/29 10:58:44;;;;;;;5.62;2.25;;;;;;;18.73;56.67;98905.97;1709403;82;21181;-68
2021/04/29 11:01:20;;;;;;;2.35;1.65;;;;;;;18.80;51.98;98914.13;1730816;82;21243;-69
2021/04/29 11:03:50;;;;;;;3.80;1.80;;;;;;;18.76;50.16;98904.97;1740614;81;21092;-69
2021/04/29 11:06:30;;;;;;;3.12;1.62;;;;;;;18.72;49.95;98896.69;1734716;81;22137;-69
2021/04/29 11:09:01;;;;;;;4.75;1.90;;;;;;;18.77;50.37;98902.70;1736452;81;21112;-69
2021/04/29 11:11:35;;;;;;;1.95;1.57;;;;;;;18.81;49.34;98895.82;1712442;82;20978;-69
2021/04/29 11:14:16;;;;;;;4.55;1.60;;;;;;;18.87;51.33;98900.03;1731125;81;21148;-69
2021/04/29 11:16:55;;;;;;;2.02;1.80;;;;;;;18.92;51.89;98887.80;1743268;81;21525;-69
2021/04/29 11:19:55;;;;;;;3.35;1.50;;;;;;;18.97;50.96;98900.06;1744302;81;21352;-68
2021/04/29 11:22:38;;;;;;;2.90;1.80;;;;;;;19.05;49.97;98895.23;1720215;82;20979;-68
2021/04/29 11:25:06;;;;;;;11.30;1.92;;;;;;;19.14;49.05;98898.84;1730451;82;20982;-69
2021/04/29 11:27:38;;;;;;;;;;;;;;;19.21;48.18;98886.06;1726989;82;20938;-67
2021/04/29 11:30:13;;;;;;;3.45;1.80;;;;;;;19.29;48.95;98881.70;1734210;82;20245;-68
2021/04/29 11:32:58;;;;;;;2.30;1.50;;;;;;;19.31;48.82;98877.14;1731274;82;21365;-68
2021/04/29 11:35:30;;;;;;;2.62;1.90;;;;;;;19.42;49.85;98877.55;1735994;82;20958;-69
2021/04/29 11:37:59;;;;;;;2.62;2.00;;;;;;;19.51;48.92;98873.11;1723593;82;21082;-69
2021/04/29 11:40:30;;;;;;;2.70;1.60;;;;;;;19.55;47.94;98875.20;1738909;82;21042;-70
2021/04/29 11:43:00;;;;;;;3.42;1.57;;;;;;;19.58;48.61;98871.92;1734813;82;21101;-69
2021/04/29 11:45:37;;;;;;;85.62;4.95;;;;;;;19.66;50.66;98872.42;1727248;82;21341;-69
2021/04/29 11:48:09;;;;;;;2.42;1.82;;;;;;;19.78;51.40;98862.47;1737346;82;21524;-69
2021/04/29 11:50:54;;;;;;;4.90;2.00;;;;;;;19.86;50.39;98860.76;1698517;81;21144;-70
2021/04/29 11:53:31;;;;;;;8.38;2.27;;;;;;;19.95;50.38;98874.20;1732188;81;21556;-69
2021/04/29 11:56:06;;;;;;;3.40;2.10;;;;;;;19.96;48.34;98862.08;1731771;82;21115;-69